Time;durP1;ratioP1;P1;durP2;ratioP2;P2;SDS_P1;SDS_P2;PMS_P1;PMS_P2;Temp;Humidity;BMP_temperature;BMP_pressure;BME280_temperature;BME280_humidity;BME280_pressure;Samples;Min_cycle;Max_cycle;Signal;HPM_P1;HPM_P2
2023/12/29 13:19:43;;;;;;;;;;;;;;;;;;5070832;27;82983;-59
2023/12/29 13:22:09;;;;;;;;;;;;;;;;;;5065677;27;89404;-59
2023/12/29 13:24:36;;;;;;;;;;;;;;;;;;5047295;27;89363;-59
2023/12/29 13:27:05;;;;;;;;;;;;;;;;;;5047211;27;89463;-60
2023/12/29 13:29:30;;;;;;;;;;;;;;;;;;5037936;27;89635;-60
2023/12/29 13:31:59;;;;;;;;;;;;;;;;;;5040978;27;89408;-59
2023/12/29 13:34:30;;;;;;;;;;;;;;;;;;5051911;27;89138;-60
2023/12/29 13:37:01;;;;;;;;;;;;;;;;;;5032804;27;90112;-59
2023/12/29 13:39:36;;;;;;;;;;;;;;;;;;5047662;27;89267;-60
2023/12/29 13:42:03;;;;;;;;;;;;;;;;;;5039533;27;89590;-60
2023/12/29 13:44:29;;;;;;;;;;;;;;;;;;5046573;27;89413;-60
2023/12/29 13:46:54;;;;;;;;;;;;;;;;;;5036573;27;89559;-60
2023/12/29 13:49:20;;;;;;;;;;;;;;;;;;5048293;27;89433;-60
2023/12/29 13:51:45;;;;;;;;;;;;;;;;;;5040393;27;90200;-60
2023/12/29 13:54:10;;;;;;;;;;;;;;;;;;5044587;27;89306;-60
2023/12/29 13:56:35;;;;;;;;;;;;;;;;;;5054463;27;89687;-60
2023/12/29 13:59:07;;;;;;;;;;;;;;;;;;5049050;27;90108;-59
2023/12/29 14:01:38;;;;;;;;;;;;;;;;;;5042526;27;89651;-59
2023/12/29 14:04:06;;;;;;;;;;;;;;;;;;5043460;27;91901;-60
2023/12/29 14:06:39;;;;;;;;;;;;;;;;;;5049664;27;89491;-60
2023/12/29 14:09:05;;;;;;;;;;;;;;;;;;5037606;27;90084;-60
2023/12/29 14:11:30;;;;;;;;;;;;;;;;;;5039161;27;89383;-59
2023/12/29 14:13:56;;;;;;;;;;;;;;;;;;5035145;27;89371;-60
2023/12/29 14:16:22;;;;;;;;;;;;;;;;;;5045507;27;92471;-59
2023/12/29 14:18:47;;;;;;;;;;;;;;;;;;5047053;27;89212;-59
2023/12/29 14:21:23;;;;;;;;;;;;;;;;;;5038187;27;89137;-60
2023/12/29 14:23:57;;;;;;;;;;;;;;;;;;5052260;27;90896;-60
2023/12/29 14:26:22;;;;;;;;;;;;;;;;;;5040442;27;89514;-59
2023/12/29 14:28:59;;;;;;;;;;;;;;;;;;5037718;27;90158;-59
2023/12/29 14:31:24;;;;;;;;;;;;;;;;;;5018138;28;89671;-59
2023/12/29 14:33:50;;;;;;;;;;;;;;;;;;5030545;27;89026;-59
2023/12/29 14:36:15;;;;;;;;;;;;;;;;;;5037749;27;89603;-60
2023/12/29 14:38:40;;;;;;;;;;;;;;;;;;5029241;27;89413;-59
2023/12/29 14:41:05;;;;;;;;;;;;;;;;;;5028244;27;89209;-59
2023/12/29 14:43:31;;;;;;;;;;;;;;;;;;5028020;27;90517;-59
2023/12/29 14:45:57;;;;;;;;;;;;;;;;;;5030575;27;89383;-60
2023/12/29 14:48:24;;;;;;;;;;;;;;;;;;5030098;27;89874;-59
2023/12/29 14:50:49;;;;;;;;;;;;;;;;;;5017053;27;89293;-60
2023/12/29 14:53:15;;;;;;;;;;;;;;;;;;5023866;27;89137;-60
2023/12/29 14:55:40;;;;;;;;;;;;;;;;;;5027795;27;89564;-60
2023/12/29 14:58:05;;;;;;;;;;;;;;;;;;5025421;27;89355;-60
2023/12/29 15:00:30;;;;;;;;;;;;;;;;;;5028234;28;89585;-59
2023/12/29 15:02:56;;;;;;;;;;;;;;;;;;5027712;27;89461;-60
2023/12/29 15:05:22;;;;;;;;;;;;;;;;;;5081193;27;90229;-60
2023/12/29 15:07:47;;;;;;;;;;;;;;;;;;5036792;27;89866;-59
2023/12/29 15:10:13;;;;;;;;;;;;;;;;;;5028678;27;90312;-60
2023/12/29 15:12:40;;;;;;;;;;;;;;;;;;5027524;28;90264;-59
2023/12/29 15:15:06;;;;;;;;;;;;;;;;;;5026108;27;89464;-59
2023/12/29 15:17:31;;;;;;;;;;;;;;;;;;5029354;27;90854;-60
2023/12/29 15:19:56;;;;;;;;;;;;;;;;;;5030595;27;89541;-60
2023/12/29 15:22:26;;;;;;;;;;;;;;;;;;5019912;28;89506;-59
2023/12/29 15:24:51;;;;;;;;;;;;;;;;;;5033703;27;89655;-60
2023/12/29 15:27:16;;;;;;;;;;;;;;;;;;5024173;27;89171;-60
2023/12/29 15:29:41;;;;;;;;;;;;;;;;;;5033763;27;89371;-59
2023/12/29 15:32:07;;;;;;;;;;;;;;;;;;5027489;27;89280;-60
2023/12/29 15:34:32;;;;;;;;;;;;;;;;;;5031931;27;89990;-59
2023/12/29 15:36:57;;;;;;;;;;;;;;;;;;5046515;27;89494;-60
2023/12/29 15:39:22;;;;;;;;;;;;;;;;;;5030060;27;89243;-60
2023/12/29 15:41:47;;;;;;;;;;;;;;;;;;5018629;28;89652;-59
2023/12/29 15:44:13;;;;;;;;;;;;;;;;;;5029706;27;89240;-59
2023/12/29 15:46:38;;;;;;;;;;;;;;;;;;5026174;28;89078;-60
2023/12/29 15:49:04;;;;;;;;;;;;;;;;;;5032257;27;89703;-60
2023/12/29 15:51:32;;;;;;;;;;;;;;;;;;5027042;27;89131;-59
2023/12/29 15:53:57;;;;;;;;;;;;;;;;;;5024443;27;90567;-60
2023/12/29 15:56:22;;;;;;;;;;;;;;;;;;5022951;27;89174;-59
2023/12/29 15:58:47;;;;;;;;;;;;;;;;;;5030344;27;90762;-60
2023/12/29 16:01:27;;;;;;;;;;;;;;;;;;5030558;27;89467;-60
2023/12/29 16:03:52;;;;;;;;;;;;;;;;;;5022646;27;89573;-62
2023/12/29 16:06:20;;;;;;;;;;;;;;;;;;5027771;28;89467;-72
2023/12/29 16:08:46;;;;;;;;;;;;;;;;;;5033534;27;92977;-66
2023/12/29 16:11:25;;;;;;;;;;;;;;;;;;5027750;27;89303;-66
2023/12/29 16:13:50;;;;;;;;;;;;;;;;;;5025469;27;89729;-67
2023/12/29 16:16:16;;;;;;;;;;;;;;;;;;5028923;28;89500;-65
2023/12/29 16:18:42;;;;;;;;;;;;;;;;;;5031648;27;90941;-65
2023/12/29 16:21:07;;;;;;;;;;;;;;;;;;5029852;27;89511;-63
2023/12/29 16:23:32;;;;;;;;;;;;;;;;;;5031005;27;89371;-65
2023/12/29 16:25:58;;;;;;;;;;;;;;;;;;5029337;28;89441;-69
2023/12/29 16:28:23;;;;;;;;;;;;;;;;;;5028623;27;89599;-68
2023/12/29 16:30:48;;;;;;;;;;;;;;;;;;5027374;27;91826;-69
2023/12/29 16:33:14;;;;;;;;;;;;;;;;;;5030340;27;89124;-64
2023/12/29 16:35:39;;;;;;;;;;;;;;;;;;5024482;27;89462;-62
2023/12/29 16:38:07;;;;;;;;;;;;;;;;;;5030347;27;89173;-73
2023/12/29 16:40:33;;;;;;;;;;;;;;;;;;5025577;27;89129;-69
2023/12/29 16:42:58;;;;;;;;;;;;;;;;;;5028317;27;89652;-68
2023/12/29 16:45:23;;;;;;;;;;;;;;;;;;5029678;27;89085;-69
2023/12/29 16:47:49;;;;;;;;;;;;;;;;;;5030062;28;89568;-67
2023/12/29 16:50:14;;;;;;;;;;;;;;;;;;5029183;27;90878;-73
2023/12/29 16:52:39;;;;;;;;;;;;;;;;;;5029436;27;89177;-72
2023/12/29 16:55:05;;;;;;;;;;;;;;;;;;5036664;27;91308;-64
2023/12/29 16:57:30;;;;;;;;;;;;;;;;;;5030411;27;89403;-67
2023/12/29 16:59:55;;;;;;;;;;;;;;;;;;5031268;27;89558;-68
2023/12/29 17:02:21;;;;;;;;;;;;;;;;;;5021652;28;89198;-65
2023/12/29 17:04:46;;;;;;;;;;;;;;;;;;5027646;27;89322;-66
2023/12/29 17:07:12;;;;;;;;;;;;;;;;;;5029703;27;89716;-65
2023/12/29 17:09:39;;;;;;;;;;;;;;;;;;5030324;27;89142;-66
2023/12/29 17:12:05;;;;;;;;;;;;;;;;;;5025991;27;89054;-66
2023/12/29 17:14:30;;;;;;;;;;;;;;;;;;5032939;27;89989;-66
2023/12/29 17:16:55;;;;;;;;;;;;;;;;;;5032063;28;90681;-66
2023/12/29 17:19:21;;;;;;;;;;;;;;;;;;5030092;27;89471;-65
2023/12/29 17:21:47;;;;;;;;;;;;;;;;;;5029017;28;91598;-65
2023/12/29 17:24:12;;;;;;;;;;;;;;;;;;5030605;27;89402;-66
2023/12/29 17:26:37;;;;;;;;;;;;;;;;;;5024065;28;90658;-66
2023/12/29 17:29:02;;;;;;;;;;;;;;;;;;5028002;27;89314;-67
2023/12/29 17:31:28;;;;;;;;;;;;;;;;;;5026963;28;89150;-67
2023/12/29 17:33:54;;;;;;;;;;;;;;;;;;5032316;27;90575;-66
2023/12/29 17:36:19;;;;;;;;;;;;;;;;;;5035204;27;89237;-66
2023/12/29 17:38:44;;;;;;;;;;;;;;;;;;5031536;27;89630;-65
2023/12/29 17:41:10;;;;;;;;;;;;;;;;;;5030324;27;89606;-65
2023/12/29 17:43:36;;;;;;;;;;;;;;;;;;5030515;27;89035;-69
2023/12/29 17:46:05;;;;;;;;;;;;;;;;;;5030440;27;89368;-65
2023/12/29 17:48:31;;;;;;;;;;;;;;;;;;5031275;27;89263;-68
2023/12/29 17:50:56;;;;;;;;;;;;;;;;;;5029263;27;89325;-67
2023/12/29 17:53:21;;;;;;;;;;;;;;;;;;5028941;28;91611;-68
2023/12/29 17:55:49;;;;;;;;;;;;;;;;;;5029851;27;89600;-64
2023/12/29 17:58:14;;;;;;;;;;;;;;;;;;5028603;27;89939;-67
2023/12/29 18:00:39;;;;;;;;;;;;;;;;;;5026563;27;92356;-66
2023/12/29 18:03:05;;;;;;;;;;;;;;;;;;5029276;27;89026;-69
2023/12/29 18:05:31;;;;;;;;;;;;;;;;;;5039777;27;89504;-69
2023/12/29 18:07:56;;;;;;;;;;;;;;;;;;5035412;27;90892;-67
2023/12/29 18:10:21;;;;;;;;;;;;;;;;;;5032319;27;89115;-69
2023/12/29 18:12:46;;;;;;;;;;;;;;;;;;5033586;28;89589;-68
2023/12/29 18:15:14;;;;;;;;;;;;;;;;;;5030733;27;92095;-68
2023/12/29 18:17:40;;;;;;;;;;;;;;;;;;5029606;28;89635;-68
2023/12/29 18:20:06;;;;;;;;;;;;;;;;;;5030882;27;92442;-68
2023/12/29 18:22:31;;;;;;;;;;;;;;;;;;5032519;27;89672;-69
2023/12/29 18:24:56;;;;;;;;;;;;;;;;;;5036908;27;89699;-68
2023/12/29 18:27:21;;;;;;;;;;;;;;;;;;5030666;28;89310;-66
2023/12/29 18:29:47;;;;;;;;;;;;;;;;;;5031942;27;89919;-67
2023/12/29 18:32:12;;;;;;;;;;;;;;;;;;5030924;28;89673;-69
2023/12/29 18:34:37;;;;;;;;;;;;;;;;;;5029206;27;91850;-66
2023/12/29 18:37:02;;;;;;;;;;;;;;;;;;5031501;28;89466;-65
2023/12/29 18:39:28;;;;;;;;;;;;;;;;;;5032022;27;91297;-66
2023/12/29 18:41:53;;;;;;;;;;;;;;;;;;5066281;27;92016;-68
2023/12/29 18:44:18;;;;;;;;;;;;;;;;;;5029946;27;89531;-66
2023/12/29 18:46:43;;;;;;;;;;;;;;;;;;5033239;27;91028;-69
2023/12/29 18:49:09;;;;;;;;;;;;;;;;;;5029392;27;89360;-66
2023/12/29 18:51:34;;;;;;;;;;;;;;;;;;5038654;27;92071;-66
2023/12/29 18:54:00;;;;;;;;;;;;;;;;;;5035402;27;89438;-66
2023/12/29 18:56:25;;;;;;;;;;;;;;;;;;5029015;27;89310;-65
2023/12/29 18:58:51;;;;;;;;;;;;;;;;;;5028720;28;91347;-74
2023/12/29 19:01:17;;;;;;;;;;;;;;;;;;5038975;27;89240;-71
2023/12/29 19:03:42;;;;;;;;;;;;;;;;;;5033905;27;89643;-72
2023/12/29 19:06:08;;;;;;;;;;;;;;;;;;5032888;27;89563;-66
2023/12/29 19:08:34;;;;;;;;;;;;;;;;;;5029980;27;89153;-68
2023/12/29 19:10:59;;;;;;;;;;;;;;;;;;5033593;27;89617;-67
2023/12/29 19:13:24;;;;;;;;;;;;;;;;;;5028247;28;89263;-68
2023/12/29 19:15:50;;;;;;;;;;;;;;;;;;5030846;27;89045;-71
2023/12/29 19:18:15;;;;;;;;;;;;;;;;;;5030776;27;92493;-69
2023/12/29 19:20:41;;;;;;;;;;;;;;;;;;5030388;27;89394;-69
2023/12/29 19:23:08;;;;;;;;;;;;;;;;;;5027902;28;89253;-69
2023/12/29 19:25:34;;;;;;;;;;;;;;;;;;5037270;27;89438;-69
2023/12/29 19:28:01;;;;;;;;;;;;;;;;;;5028229;27;89282;-69
2023/12/29 19:30:26;;;;;;;;;;;;;;;;;;5030446;27;89979;-71
2023/12/29 19:32:52;;;;;;;;;;;;;;;;;;5029851;28;88974;-69
2023/12/29 19:35:17;;;;;;;;;;;;;;;;;;5037537;27;89617;-68
2023/12/29 19:37:43;;;;;;;;;;;;;;;;;;5033291;28;89741;-71
2023/12/29 19:40:09;;;;;;;;;;;;;;;;;;5030386;28;89201;-69
2023/12/29 19:42:34;;;;;;;;;;;;;;;;;;5017227;28;89343;-72
2023/12/29 19:44:59;;;;;;;;;;;;;;;;;;5040739;27;90431;-70
2023/12/29 19:47:25;;;;;;;;;;;;;;;;;;5044417;27;89091;-72
2023/12/29 19:49:50;;;;;;;;;;;;;;;;;;5029806;28;89314;-70
2023/12/29 19:52:19;;;;;;;;;;;;;;;;;;5030696;27;90086;-70
2023/12/29 19:54:44;;;;;;;;;;;;;;;;;;5030277;27;90764;-69
2023/12/29 19:57:09;;;;;;;;;;;;;;;;;;5030558;27;90609;-67
2023/12/29 19:59:35;;;;;;;;;;;;;;;;;;5032356;27;90563;-70
2023/12/29 20:02:00;;;;;;;;;;;;;;;;;;5029771;27;89138;-69
2023/12/29 20:04:25;;;;;;;;;;;;;;;;;;5037906;27;89511;-69
2023/12/29 20:06:53;;;;;;;;;;;;;;;;;;5034271;27;89247;-72
2023/12/29 20:09:18;;;;;;;;;;;;;;;;;;5031467;27;90916;-70
2023/12/29 20:11:44;;;;;;;;;;;;;;;;;;5031553;27;91482;-70
2023/12/29 20:14:09;;;;;;;;;;;;;;;;;;5028231;27;89601;-67
2023/12/29 20:16:36;;;;;;;;;;;;;;;;;;5033041;27;89559;-67
2023/12/29 20:19:03;;;;;;;;;;;;;;;;;;5027943;27;91938;-69
2023/12/29 20:21:28;;;;;;;;;;;;;;;;;;5031604;27;89112;-73
2023/12/29 20:23:54;;;;;;;;;;;;;;;;;;5030284;27;89531;-67
2023/12/29 20:26:23;;;;;;;;;;;;;;;;;;5031017;27;89666;-68
2023/12/29 20:28:50;;;;;;;;;;;;;;;;;;5026508;28;89894;-71
2023/12/29 20:31:24;;;;;;;;;;;;;;;;;;5029675;27;90237;-73
2023/12/29 20:33:50;;;;;;;;;;;;;;;;;;5026980;27;89103;-70
2023/12/29 20:36:15;;;;;;;;;;;;;;;;;;5040951;27;89467;-68
2023/12/29 20:38:42;;;;;;;;;;;;;;;;;;5029510;27;91954;-71
2023/12/29 20:41:08;;;;;;;;;;;;;;;;;;5031482;27;89691;-72
2023/12/29 20:43:33;;;;;;;;;;;;;;;;;;5030621;27;89573;-70
2023/12/29 20:45:58;;;;;;;;;;;;;;;;;;5024503;27;89343;-73
2023/12/29 20:48:23;;;;;;;;;;;;;;;;;;5028696;27;89161;-68
2023/12/29 20:50:49;;;;;;;;;;;;;;;;;;5068228;27;92962;-69
2023/12/29 20:53:14;;;;;;;;;;;;;;;;;;5027327;27;91660;-71
2023/12/29 20:55:39;;;;;;;;;;;;;;;;;;5030439;27;89670;-68
2023/12/29 20:58:05;;;;;;;;;;;;;;;;;;5031298;27;89292;-71
2023/12/29 21:00:30;;;;;;;;;;;;;;;;;;5027696;27;89164;-71
2023/12/29 21:02:55;;;;;;;;;;;;;;;;;;5021936;28;90597;-70
2023/12/29 21:05:21;;;;;;;;;;;;;;;;;;5016495;28;89287;-67
2023/12/29 21:07:46;;;;;;;;;;;;;;;;;;5026883;27;89381;-70
2023/12/29 21:10:12;;;;;;;;;;;;;;;;;;5014062;28;89568;-67
2023/12/29 21:12:37;;;;;;;;;;;;;;;;;;5023639;28;89414;-75
2023/12/29 21:15:03;;;;;;;;;;;;;;;;;;5020604;28;89070;-73
2023/12/29 21:17:30;;;;;;;;;;;;;;;;;;5026274;28;90052;-69
2023/12/29 21:19:55;;;;;;;;;;;;;;;;;;5023152;28;89154;-71
2023/12/29 21:22:20;;;;;;;;;;;;;;;;;;5017536;28;89524;-72
2023/12/29 21:24:45;;;;;;;;;;;;;;;;;;5023317;28;89132;-68
2023/12/29 21:27:11;;;;;;;;;;;;;;;;;;5018543;27;89054;-72
2023/12/29 21:29:40;;;;;;;;;;;;;;;;;;5012326;28;89904;-70
2023/12/29 21:32:06;;;;;;;;;;;;;;;;;;5028002;27;89300;-69
2023/12/29 21:34:31;;;;;;;;;;;;;;;;;;5021236;27;89406;-73
2023/12/29 21:36:57;;;;;;;;;;;;;;;;;;5020475;27;89220;-70
2023/12/29 21:39:23;;;;;;;;;;;;;;;;;;5018088;28;89405;-73
2023/12/29 21:41:48;;;;;;;;;;;;;;;;;;5022615;27;90168;-70
2023/12/29 21:44:13;;;;;;;;;;;;;;;;;;5024851;27;89700;-72
2023/12/29 21:46:41;;;;;;;;;;;;;;;;;;5022380;28;89036;-69
2023/12/29 21:49:08;;;;;;;;;;;;;;;;;;5028760;27;89333;-67
2023/12/29 21:51:33;;;;;;;;;;;;;;;;;;5023975;27;89247;-70
2023/12/29 21:53:58;;;;;;;;;;;;;;;;;;5030574;27;89151;-70
2023/12/29 21:56:23;;;;;;;;;;;;;;;;;;5030204;27;89231;-69
2023/12/29 21:58:50;;;;;;;;;;;;;;;;;;5031463;27;89236;-70
2023/12/29 22:01:27;;;;;;;;;;;;;;;;;;5025944;28;92415;-71
2023/12/29 22:03:53;;;;;;;;;;;;;;;;;;5024106;27;90285;-66
2023/12/29 22:06:18;;;;;;;;;;;;;;;;;;5026597;27;90349;-68
2023/12/29 22:08:43;;;;;;;;;;;;;;;;;;5031937;27;89512;-71
2023/12/29 22:11:09;;;;;;;;;;;;;;;;;;5028406;27;89276;-70
2023/12/29 22:13:34;;;;;;;;;;;;;;;;;;5021199;27;90896;-70
2023/12/29 22:16:00;;;;;;;;;;;;;;;;;;5031600;27;89582;-72
2023/12/29 22:18:25;;;;;;;;;;;;;;;;;;5029747;27;89461;-67
2023/12/29 22:20:50;;;;;;;;;;;;;;;;;;5028345;27;92313;-66
2023/12/29 22:23:16;;;;;;;;;;;;;;;;;;5033951;27;89418;-66
2023/12/29 22:25:41;;;;;;;;;;;;;;;;;;5039881;27;89137;-67
2023/12/29 22:28:07;;;;;;;;;;;;;;;;;;5031664;27;89530;-68
2023/12/29 22:30:33;;;;;;;;;;;;;;;;;;5031228;27;89439;-67
2023/12/29 22:32:58;;;;;;;;;;;;;;;;;;5038258;27;90141;-70
2023/12/29 22:35:24;;;;;;;;;;;;;;;;;;5033750;27;91418;-68
2023/12/29 22:37:49;;;;;;;;;;;;;;;;;;5032159;27;89131;-68
2023/12/29 22:40:15;;;;;;;;;;;;;;;;;;5032653;27;90454;-66
2023/12/29 22:42:42;;;;;;;;;;;;;;;;;;5039513;27;92193;-67
2023/12/29 22:45:08;;;;;;;;;;;;;;;;;;5030130;27;90001;-67
2023/12/29 22:47:33;;;;;;;;;;;;;;;;;;5062212;27;92348;-65
2023/12/29 22:49:58;;;;;;;;;;;;;;;;;;5033401;27;92005;-70
2023/12/29 22:52:24;;;;;;;;;;;;;;;;;;5034540;27;91296;-66
2023/12/29 22:54:49;;;;;;;;;;;;;;;;;;5033012;27;89560;-69
2023/12/29 22:57:14;;;;;;;;;;;;;;;;;;5049930;27;89492;-67
2023/12/29 22:59:39;;;;;;;;;;;;;;;;;;5045367;27;89082;-67
2023/12/29 23:02:05;;;;;;;;;;;;;;;;;;5033080;28;89103;-66
2023/12/29 23:04:30;;;;;;;;;;;;;;;;;;5033307;28;89014;-68
2023/12/29 23:06:55;;;;;;;;;;;;;;;;;;5032415;28;91352;-68
2023/12/29 23:09:20;;;;;;;;;;;;;;;;;;5033086;28;89328;-69
2023/12/29 23:11:46;;;;;;;;;;;;;;;;;;5034391;27;89014;-67
2023/12/29 23:14:11;;;;;;;;;;;;;;;;;;5032715;28;89531;-69
2023/12/29 23:16:37;;;;;;;;;;;;;;;;;;5032207;27;89372;-68
2023/12/29 23:19:02;;;;;;;;;;;;;;;;;;5032563;27;89651;-66
2023/12/29 23:21:28;;;;;;;;;;;;;;;;;;5035732;28;89006;-66
2023/12/29 23:23:53;;;;;;;;;;;;;;;;;;5032845;28;89601;-67
2023/12/29 23:26:18;;;;;;;;;;;;;;;;;;5031886;28;90517;-67
2023/12/29 23:28:43;;;;;;;;;;;;;;;;;;5012010;28;90356;-66
2023/12/29 23:31:08;;;;;;;;;;;;;;;;;;5013048;28;89637;-69
2023/12/29 23:33:33;;;;;;;;;;;;;;;;;;5013487;28;89058;-66
2023/12/29 23:35:59;;;;;;;;;;;;;;;;;;5032420;27;89304;-68
2023/12/29 23:38:24;;;;;;;;;;;;;;;;;;5031284;28;89616;-66
2023/12/29 23:40:49;;;;;;;;;;;;;;;;;;5032809;28;89514;-67
2023/12/29 23:43:15;;;;;;;;;;;;;;;;;;5033897;28;91786;-67
2023/12/29 23:45:40;;;;;;;;;;;;;;;;;;5033218;28;90196;-67
2023/12/29 23:48:06;;;;;;;;;;;;;;;;;;5033019;28;89367;-66
2023/12/29 23:50:31;;;;;;;;;;;;;;;;;;5032864;27;89398;-66
2023/12/29 23:52:59;;;;;;;;;;;;;;;;;;5033136;28;89656;-67
2023/12/29 23:55:25;;;;;;;;;;;;;;;;;;5035076;27;89529;-67
2023/12/29 23:57:50;;;;;;;;;;;;;;;;;;5052525;27;89003;-66
